Gyal, Hungary

8:00 AM CET on November 26, 2014 (GMT +0100)
Kecskemet | Change Station
CLOSE
Current Station
Airport
Location: Kecskemet,
Elevation: 371 ft
Nearby Weather Stations

Elev 371 ft 46.92 °N, 19.75 °E | Updated 1 hour ago

Mostly Cloudy
Mostly Cloudy
--
Feels Like --
N
2
Wind Variable Wind from Variable

Today
High -- | Low -- °F
--% Chance of Precip.
Yesterday
High -- | Low -- °F
Precip. -- in
7:02 AM 3:57 PM
Waxing Crescent, 17% visible
Pressure --
Visibility 1.9 miles
Clouds Scattered Clouds 1000 ft
Mostly Cloudy 2000 ft
Dew Point Not available.
Humidity Not available.
Rainfall 0.00 in
Snow Depth Not available.
UV 0 out of 12
Pollen Not available.
Air Quality Not available.
Flu Activity Not available.
METAR LHKE 260600Z 2606/2615 VRB02KT 3000 BR BKN010 OVC040 TEMPO 2606/2608 1500 BR BECMG 2608/2610 5000 BR SCT010 BKN020 TEMPO 2610/2615 05004KT 8000 NSW

More Conditions Fewer Conditions

Pressure --
Visibility 1.9 miles
Clouds Scattered Clouds 1000 ft
Mostly Cloudy 2000 ft
Dew Point Not available.
Humidity Not available.
Rainfall 0.00 in
Snow Depth Not available.
UV 0 out of 12
Pollen Not available.
Air Quality Not available.
Flu Activity Not available.
METAR LHKE 260600Z 2606/2615 VRB02KT 3000 BR BKN010 OVC040 TEMPO 2606/2608 1500 BR BECMG 2608/2610 5000 BR SCT010 BKN020 TEMPO 2610/2615 05004KT 8000 NSW

More Conditions Fewer Conditions

10-Day Weather Forecast

Almanac

Astronomy

Nov. 26, 2014 Rise Set
Actual Time
Civil Twilight
Nautical Twilight
Astronomical Twilight
Moon
Length of Visible Light
Length of Day
Tomorrow will be .
, % of the Moon is Illuminated

Today's Extremes

Country Highs Country Lows

Community

WunderPhotos

Upload Photos

1,773,694 photos uploaded!

WunderBlogs® & News

Nearby

Air Quality

  Air Quality AQ Index Pollutant
Not available.

Snow Depth

Station Depth Elevation

Earthquake Activity

City Distance Mag. Time & Date
Minimum magnitude displayed is 2.5.

Coastal Water Temperatures

Place Temperature

Nearby Weather Stations